createdAt,value
2023-02-28T00:00:40.987Z,2.97
2023-02-28T00:03:10.622Z,3.88
2023-02-28T00:05:40.211Z,3.65
2023-02-28T00:08:09.706Z,3.58
2023-02-28T00:10:39.476Z,5.05
2023-02-28T00:13:12.069Z,3.55
2023-02-28T00:15:41.633Z,4.82
2023-02-28T00:18:11.169Z,6.63
2023-02-28T00:20:40.680Z,4.40
2023-02-28T00:23:10.210Z,4.78
2023-02-28T00:25:39.706Z,4.22
2023-02-28T00:28:11.840Z,2.97
2023-02-28T00:30:41.421Z,5.15
2023-02-28T00:33:11.050Z,3.58
2023-02-28T00:35:40.576Z,5.32
2023-02-28T00:38:10.133Z,3.90
2023-02-28T00:40:39.582Z,3.58
2023-02-28T00:43:11.666Z,5.65
2023-02-28T00:45:41.134Z,4.20
2023-02-28T00:48:10.634Z,5.15
2023-02-28T00:50:40.112Z,3.92
2023-02-28T00:53:09.591Z,5.75
2023-02-28T00:55:39.179Z,5.22
2023-02-28T00:58:11.238Z,4.95
2023-02-28T01:00:40.688Z,4.70
2023-02-28T01:03:13.197Z,5.07
2023-02-28T01:05:42.647Z,6.57
2023-02-28T01:08:12.110Z,6.55
2023-02-28T01:10:41.592Z,5.63
2023-02-28T01:13:13.641Z,4.97
2023-02-28T01:15:43.254Z,5.53
2023-02-28T01:18:12.718Z,5.38
2023-02-28T01:20:42.291Z,4.20
2023-02-28T01:23:11.836Z,5.50
2023-02-28T01:25:41.458Z,7.22
2023-02-28T01:28:13.507Z,5.18
2023-02-28T01:30:43.059Z,5.05
2023-02-28T01:33:12.570Z,5.30
2023-02-28T01:35:42.626Z,4.88
2023-02-28T01:38:21.637Z,5.73
2023-02-28T01:40:52.110Z,4.85
2023-02-28T01:43:26.617Z,6.03
2023-02-28T01:45:56.438Z,4.60
2023-02-28T01:48:27.613Z,6.93
2023-02-28T01:50:57.287Z,5.60
2023-02-28T01:53:28.809Z,4.60
2023-02-28T01:55:58.280Z,5.63
2023-02-28T01:58:30.362Z,4.97
2023-02-28T02:01:00.034Z,6.88
2023-02-28T02:03:29.506Z,5.60
2023-02-28T02:05:59.147Z,5.35
2023-02-28T02:08:30.357Z,7.15
2023-02-28T02:11:00.587Z,5.32
2023-02-28T02:13:50.689Z,5.65
2023-02-28T02:16:30.176Z,6.28
2023-02-28T02:19:02.562Z,5.82
2023-02-28T02:21:52.637Z,4.50
2023-02-28T02:24:59.152Z,5.28
2023-02-28T02:27:31.644Z,6.43
2023-02-28T02:30:41.045Z,5.50
2023-02-28T02:33:19.016Z,5.10
2023-02-28T02:35:53.386Z,4.72
2023-02-28T02:38:24.043Z,6.03
2023-02-28T02:40:57.935Z,5.97
2023-02-28T02:43:29.730Z,5.30
2023-02-28T02:45:59.566Z,5.78
2023-02-28T02:48:30.397Z,5.30
2023-02-28T02:51:03.334Z,6.22
2023-02-28T02:53:36.007Z,5.82
2023-02-28T02:56:05.577Z,7.35
2023-02-28T02:58:36.065Z,5.95
2023-02-28T03:01:05.880Z,4.85
2023-02-28T03:03:35.405Z,7.13
2023-02-28T03:06:08.005Z,5.80
2023-02-28T03:08:40.250Z,5.75
2023-02-28T03:11:13.301Z,6.15
2023-02-28T03:14:22.579Z,7.03
2023-02-28T03:17:07.652Z,5.90
2023-02-28T03:19:47.917Z,5.13
2023-02-28T03:22:32.343Z,6.05
2023-02-28T03:25:05.097Z,4.55
2023-02-28T03:27:37.969Z,6.40
2023-02-28T03:30:08.870Z,5.95
2023-02-28T03:32:39.713Z,4.78
2023-02-28T03:35:11.666Z,4.97
2023-02-28T03:37:44.891Z,4.93
2023-02-28T03:40:16.276Z,5.10
2023-02-28T03:42:46.300Z,4.85
2023-02-28T03:45:17.304Z,4.95
2023-02-28T03:50:20.295Z,5.20
2023-02-28T03:52:53.882Z,5.53
2023-02-28T03:55:23.464Z,5.05
2023-02-28T03:57:57.980Z,5.53
2023-02-28T04:00:31.990Z,4.72
2023-02-28T04:03:01.415Z,4.28
2023-02-28T04:05:31.007Z,4.07
2023-02-28T04:08:09.931Z,4.88
2023-02-28T04:10:39.395Z,5.10
2023-02-28T04:13:08.933Z,3.60
2023-02-28T04:15:38.508Z,5.40
2023-02-28T04:18:08.042Z,4.50
2023-02-28T04:20:37.528Z,4.93
2023-02-28T04:23:09.554Z,5.20
2023-02-28T04:25:41.401Z,4.68
2023-02-28T04:28:10.943Z,4.68
2023-02-28T04:30:41.691Z,5.00
2023-02-28T04:33:11.138Z,4.40
2023-02-28T04:35:40.658Z,4.80
2023-02-28T04:38:12.717Z,5.18
2023-02-28T04:40:42.184Z,5.57
2023-02-28T04:43:11.650Z,5.35
2023-02-28T04:45:41.090Z,6.88
2023-02-28T04:48:10.790Z,5.25
2023-02-28T04:50:40.273Z,4.72
2023-02-28T04:53:12.314Z,6.13
2023-02-28T04:55:41.821Z,5.57
2023-02-28T04:58:11.288Z,6.05
2023-02-28T05:00:40.748Z,4.97
2023-02-28T05:03:10.834Z,4.38
2023-02-28T05:05:40.253Z,6.63
2023-02-28T05:08:12.885Z,5.72
2023-02-28T05:10:42.394Z,5.53
2023-02-28T05:13:13.534Z,6.07
2023-02-28T05:15:42.984Z,4.93
2023-02-28T05:18:12.391Z,5.43
2023-02-28T05:20:41.821Z,5.15
2023-02-28T05:23:14.550Z,6.68
2023-02-28T05:25:44.090Z,6.20
2023-02-28T05:28:13.597Z,5.28
2023-02-28T05:30:43.037Z,6.13
2023-02-28T05:33:14.153Z,6.25
2023-02-28T05:35:43.733Z,5.63
2023-02-28T05:38:15.813Z,6.20
2023-02-28T05:40:45.239Z,6.22
2023-02-28T05:43:15.496Z,5.35
2023-02-28T05:45:44.985Z,6.57
2023-02-28T05:48:14.449Z,5.45
2023-02-28T05:50:45.829Z,5.68
2023-02-28T05:53:17.914Z,6.07
2023-02-28T05:55:47.340Z,6.13
2023-02-28T05:58:16.798Z,6.00
2023-02-28T06:00:46.576Z,7.03
2023-02-28T06:03:16.042Z,7.03
2023-02-28T06:05:45.736Z,6.30
2023-02-28T06:08:17.748Z,5.68
2023-02-28T06:10:47.277Z,6.28
2023-02-28T06:13:16.765Z,6.20
2023-02-28T06:15:46.202Z,5.50
2023-02-28T06:18:15.664Z,6.40
2023-02-28T06:20:45.493Z,6.18
2023-02-28T06:23:17.699Z,7.32
2023-02-28T06:25:48.723Z,5.80
2023-02-28T06:30:47.328Z,6.32
2023-02-28T06:33:16.822Z,7.13
2023-02-28T06:35:47.703Z,6.10
2023-02-28T06:38:19.789Z,5.40
2023-02-28T06:40:52.648Z,5.80
2023-02-28T06:43:22.117Z,5.57
2023-02-28T06:45:51.592Z,6.13
2023-02-28T06:48:21.239Z,4.97
2023-02-28T06:50:50.663Z,5.90
2023-02-28T06:53:22.681Z,6.82
2023-02-28T06:55:52.114Z,4.30
2023-02-28T06:58:21.549Z,5.13
2023-02-28T07:00:54.295Z,5.53
2023-02-28T07:03:24.860Z,5.45
2023-02-28T07:05:54.348Z,6.70
2023-02-28T07:08:26.404Z,6.97
2023-02-28T07:10:56.517Z,7.50
2023-02-28T07:13:26.157Z,6.33
2023-02-28T07:15:59.136Z,4.72
2023-02-28T07:18:28.857Z,5.60
2023-02-28T07:20:58.357Z,6.40
2023-02-28T07:23:30.427Z,5.55
2023-02-28T07:25:59.848Z,5.28
2023-02-28T07:28:29.444Z,5.00
2023-02-28T07:30:58.886Z,4.60
2023-02-28T07:33:28.385Z,4.38
2023-02-28T07:36:04.104Z,5.47
2023-02-28T07:38:37.421Z,6.32
2023-02-28T07:41:09.195Z,4.78
2023-02-28T07:43:38.687Z,4.18
2023-02-28T07:46:08.705Z,5.03
2023-02-28T07:48:38.374Z,6.75
2023-02-28T07:51:08.328Z,4.47
2023-02-28T07:53:40.386Z,5.93
2023-02-28T07:56:11.713Z,5.10
2023-02-28T07:58:41.151Z,5.18
2023-02-28T08:01:11.116Z,4.10
2023-02-28T08:03:40.797Z,4.43
2023-02-28T08:06:11.599Z,4.60
2023-02-28T08:08:43.644Z,4.90
2023-02-28T08:11:13.085Z,4.97
2023-02-28T08:13:43.466Z,3.95
2023-02-28T08:16:13.060Z,4.10
2023-02-28T08:18:42.566Z,4.68
2023-02-28T08:21:12.195Z,4.88
2023-02-28T08:23:44.229Z,4.55
2023-02-28T08:26:13.709Z,5.35
2023-02-28T08:28:43.260Z,5.47
2023-02-28T08:31:12.966Z,5.53
2023-02-28T08:33:42.727Z,4.55
2023-02-28T08:36:12.499Z,6.90
2023-02-28T08:38:44.552Z,5.13
2023-02-28T08:41:15.141Z,5.22
2023-02-28T08:43:44.639Z,6.13
2023-02-28T08:46:14.838Z,6.18
2023-02-28T08:48:44.911Z,5.55
2023-02-28T08:51:17.264Z,6.85
2023-02-28T08:53:50.393Z,6.30
2023-02-28T08:56:20.350Z,8.38
2023-02-28T08:58:50.209Z,5.40
2023-02-28T09:01:20.975Z,7.43
2023-02-28T09:03:51.102Z,8.07
2023-02-28T09:06:21.287Z,7.72
2023-02-28T09:08:53.672Z,7.70
2023-02-28T09:11:23.372Z,8.30
2023-02-28T09:13:52.909Z,6.47
2023-02-28T09:16:22.521Z,8.27
2023-02-28T09:18:52.003Z,8.68
2023-02-28T09:21:22.120Z,7.80
2023-02-28T09:23:54.304Z,7.77
2023-02-28T09:26:24.878Z,10.23
2023-02-28T09:28:54.423Z,8.70
2023-02-28T09:31:25.239Z,8.93
2023-02-28T09:33:55.542Z,8.25
2023-02-28T09:36:34.541Z,9.82
2023-02-28T09:39:15.485Z,9.57
2023-02-28T09:41:49.551Z,7.75
2023-02-28T09:44:21.859Z,7.93
2023-02-28T09:46:53.664Z,8.93
2023-02-28T09:49:25.337Z,8.23
2023-02-28T09:51:57.901Z,8.23
2023-02-28T09:54:32.319Z,8.65
2023-02-28T09:57:03.824Z,7.05
2023-02-28T09:59:40.264Z,8.40
2023-02-28T10:02:14.776Z,7.78
2023-02-28T10:04:52.593Z,9.43
2023-02-28T10:07:27.655Z,8.68
2023-02-28T10:10:01.362Z,9.63
2023-02-28T10:12:31.260Z,7.50
2023-02-28T10:15:00.712Z,7.95
2023-02-28T10:17:31.230Z,8.07
2023-02-28T10:20:08.849Z,7.53
2023-02-28T10:22:41.587Z,7.18
2023-02-28T10:25:20.472Z,7.68
2023-02-28T10:27:49.949Z,8.43
2023-02-28T10:30:19.783Z,7.15
2023-02-28T10:32:54.595Z,8.10
2023-02-28T10:35:24.920Z,9.40
2023-02-28T10:37:55.129Z,8.05
2023-02-28T10:40:36.564Z,8.53
2023-02-28T10:43:06.813Z,8.07
2023-02-28T10:45:38.051Z,9.13
2023-02-28T10:48:10.052Z,8.93
2023-02-28T10:50:45.955Z,9.93
2023-02-28T10:53:36.204Z,8.38
2023-02-28T10:56:22.323Z,9.18
2023-02-28T10:58:54.842Z,10.15
2023-02-28T11:01:25.409Z,9.32
2023-02-28T11:03:55.412Z,8.00
2023-02-28T11:06:25.879Z,9.30
2023-02-28T11:08:56.616Z,9.20
2023-02-28T11:11:29.760Z,7.57
2023-02-28T11:14:00.117Z,8.20
2023-02-28T11:16:36.448Z,8.60
2023-02-28T11:19:05.948Z,8.25
2023-02-28T11:21:37.685Z,8.05
2023-02-28T11:24:09.390Z,7.25
2023-02-28T11:26:46.138Z,9.50
2023-02-28T11:29:20.992Z,7.40
2023-02-28T11:32:14.638Z,8.90
2023-02-28T11:34:44.670Z,8.25
2023-02-28T11:37:16.530Z,8.82
2023-02-28T11:39:46.195Z,8.25
2023-02-28T11:42:29.404Z,9.10
2023-02-28T11:45:06.390Z,7.75
2023-02-28T11:47:38.011Z,7.97
2023-02-28T11:50:25.041Z,10.00
2023-02-28T11:52:56.773Z,10.45
2023-02-28T11:55:29.442Z,8.25
2023-02-28T11:58:35.243Z,9.00
2023-02-28T12:01:10.860Z,8.15
2023-02-28T12:03:47.123Z,11.13
2023-02-28T12:06:22.122Z,8.43
2023-02-28T12:08:57.005Z,11.30
2023-02-28T12:11:33.282Z,8.93
2023-02-28T12:14:17.323Z,9.02
2023-02-28T12:16:51.346Z,9.27
2023-02-28T12:19:23.410Z,9.55
2023-02-28T12:22:09.380Z,10.45
2023-02-28T12:24:47.317Z,9.68
2023-02-28T12:27:18.701Z,9.63
2023-02-28T12:29:53.991Z,8.93
2023-02-28T12:32:25.663Z,8.77
2023-02-28T12:34:57.195Z,10.75
2023-02-28T12:37:28.899Z,9.23
2023-02-28T12:39:59.763Z,10.80
2023-02-28T12:42:31.865Z,9.65
2023-02-28T12:45:05.436Z,9.88
2023-02-28T12:47:34.930Z,8.98
2023-02-28T12:50:09.001Z,9.18
2023-02-28T12:52:41.524Z,9.90
2023-02-28T12:55:14.715Z,9.88
2023-02-28T12:57:45.606Z,9.95
2023-02-28T13:00:19.275Z,9.10
2023-02-28T13:03:25.796Z,9.82
2023-02-28T13:06:04.866Z,10.93
2023-02-28T13:08:50.352Z,9.32
2023-02-28T13:11:31.385Z,9.13
2023-02-28T13:14:05.227Z,9.68
2023-02-28T13:17:00.184Z,9.63
2023-02-28T13:19:30.765Z,8.88
2023-02-28T13:22:00.375Z,9.52
2023-02-28T13:24:48.506Z,8.68
2023-02-28T13:27:36.415Z,9.95
2023-02-28T13:30:21.111Z,10.52
2023-02-28T13:33:10.615Z,9.38
2023-02-28T13:35:41.279Z,10.02
2023-02-28T13:38:36.925Z,9.60
2023-02-28T13:41:36.718Z,10.57
2023-02-28T13:44:07.599Z,9.45
2023-02-28T13:46:37.916Z,10.63
2023-02-28T13:49:29.125Z,10.13
2023-02-28T13:51:59.358Z,9.45
2023-02-28T13:54:34.432Z,9.60
2023-02-28T13:57:15.812Z,10.32
2023-02-28T13:59:50.398Z,10.57
2023-02-28T14:02:40.158Z,9.40
2023-02-28T14:05:16.960Z,10.77
2023-02-28T14:07:49.232Z,10.65
2023-02-28T14:10:30.377Z,11.38
2023-02-28T14:13:04.705Z,11.38
2023-02-28T14:15:45.861Z,9.60
2023-02-28T14:20:51.270Z,10.50
2023-02-28T14:23:26.891Z,10.98
2023-02-28T14:25:59.373Z,10.02
2023-02-28T14:28:34.504Z,10.68
2023-02-28T14:31:08.937Z,12.45
2023-02-28T14:33:51.007Z,10.68
2023-02-28T14:36:25.259Z,11.00
2023-02-28T14:38:59.960Z,10.27
2023-02-28T14:41:36.234Z,9.93
2023-02-28T14:44:07.296Z,10.35
2023-02-28T14:51:40.377Z,10.13
2023-02-28T14:54:09.919Z,10.18
2023-02-28T14:56:40.530Z,10.48
2023-02-28T14:59:21.869Z,9.65
2023-02-28T15:01:51.438Z,9.98
2023-02-28T15:04:24.994Z,10.23
2023-02-28T15:07:14.850Z,10.25
2023-02-28T15:09:44.925Z,10.00
2023-02-28T15:12:16.747Z,10.35
2023-02-28T15:14:47.012Z,11.40
2023-02-28T15:17:20.926Z,11.50
2023-02-28T15:19:53.921Z,11.52
2023-02-28T15:22:31.324Z,10.38
2023-02-28T15:25:00.975Z,9.40
2023-02-28T15:27:33.135Z,12.48
2023-02-28T15:30:04.442Z,12.32
2023-02-28T15:32:36.663Z,11.40
2023-02-28T15:35:22.111Z,9.73
2023-02-28T15:37:56.782Z,10.35
2023-02-28T15:40:30.346Z,10.23
2023-02-28T15:43:04.570Z,9.80
2023-02-28T15:45:39.490Z,10.30
2023-02-28T15:48:14.309Z,11.95
2023-02-28T15:50:44.290Z,9.88
2023-02-28T15:53:20.303Z,11.43
2023-02-28T15:55:54.960Z,10.50
2023-02-28T15:58:25.039Z,10.30
2023-02-28T16:01:04.860Z,10.32
2023-02-28T16:03:42.300Z,12.65
2023-02-28T16:06:13.540Z,10.38
2023-02-28T16:08:45.620Z,10.23
2023-02-28T16:11:15.090Z,10.90
2023-02-28T16:13:44.597Z,10.40
2023-02-28T16:16:19.167Z,10.50
2023-02-28T16:18:48.719Z,10.30
2023-02-28T16:21:28.732Z,10.75
2023-02-28T16:24:01.290Z,10.60
2023-02-28T16:26:30.769Z,10.65
2023-02-28T16:29:00.240Z,9.85
2023-02-28T16:31:30.035Z,8.90
2023-02-28T16:34:00.099Z,11.20
2023-02-28T16:36:29.852Z,10.18
2023-02-28T16:39:02.602Z,10.38
2023-02-28T16:41:32.586Z,11.40
2023-02-28T16:44:02.584Z,10.45
2023-02-28T16:46:35.032Z,10.93
2023-02-28T16:49:04.597Z,10.60
2023-02-28T16:51:35.751Z,11.43
2023-02-28T16:54:08.357Z,10.02
2023-02-28T16:56:37.879Z,10.43
2023-02-28T16:59:07.318Z,13.45
2023-02-28T17:01:36.896Z,11.18
2023-02-28T17:04:06.414Z,10.80
2023-02-28T17:06:35.900Z,10.65
2023-02-28T17:09:10.428Z,12.05
2023-02-28T17:11:39.936Z,11.18
2023-02-28T17:14:09.395Z,11.30
2023-02-28T17:16:40.881Z,11.02
2023-02-28T17:19:11.942Z,11.43
2023-02-28T17:21:42.704Z,11.05
2023-02-28T17:24:22.147Z,12.18
2023-02-28T17:26:59.414Z,11.15
2023-02-28T17:29:28.840Z,10.50
2023-02-28T17:32:00.826Z,10.90
2023-02-28T17:34:32.500Z,9.90
2023-02-28T17:37:03.806Z,11.15
2023-02-28T17:39:36.078Z,11.73
2023-02-28T17:42:05.560Z,10.68
2023-02-28T17:44:35.015Z,9.68
2023-02-28T17:47:04.480Z,11.30
2023-02-28T17:49:34.252Z,11.57
2023-02-28T17:52:03.745Z,10.40
2023-02-28T17:54:35.841Z,12.20
2023-02-28T17:57:05.323Z,10.52
2023-02-28T17:59:36.789Z,9.98
2023-02-28T18:02:06.327Z,9.15
2023-02-28T18:04:35.779Z,10.32
2023-02-28T18:07:05.243Z,10.23
2023-02-28T18:09:37.271Z,11.52
2023-02-28T18:12:07.239Z,11.65
2023-02-28T18:14:36.700Z,10.98
2023-02-28T18:17:06.162Z,11.32
2023-02-28T18:19:35.699Z,10.93
2023-02-28T18:22:05.510Z,11.65
2023-02-28T18:24:37.622Z,10.82
2023-02-28T18:27:07.226Z,11.93
2023-02-28T18:29:39.194Z,9.27
2023-02-28T18:32:10.254Z,11.75
2023-02-28T18:34:39.752Z,11.48
2023-02-28T18:37:09.235Z,13.60
2023-02-28T18:39:41.299Z,15.35
2023-02-28T18:42:10.763Z,14.25
2023-02-28T18:44:40.381Z,14.90
2023-02-28T18:47:09.896Z,13.07
2023-02-28T18:49:39.597Z,12.40
2023-02-28T18:52:09.041Z,11.70
2023-02-28T18:54:41.124Z,11.60
2023-02-28T18:57:10.615Z,12.30
2023-02-28T18:59:40.091Z,11.55
2023-02-28T19:02:10.236Z,17.23
2023-02-28T19:04:40.185Z,15.83
2023-02-28T19:07:09.644Z,12.88
2023-02-28T19:09:41.808Z,12.20
2023-02-28T19:12:11.631Z,11.55
2023-02-28T19:14:41.070Z,11.68
2023-02-28T19:17:10.554Z,11.27
2023-02-28T19:19:40.025Z,12.10
2023-02-28T19:22:09.522Z,11.95
2023-02-28T19:24:41.565Z,13.48
2023-02-28T19:27:11.034Z,12.27
2023-02-28T19:29:40.447Z,13.15
2023-02-28T19:32:10.070Z,11.68
2023-02-28T19:34:39.573Z,11.15
2023-02-28T19:37:09.083Z,10.65
2023-02-28T19:39:43.743Z,10.88
2023-02-28T19:42:13.466Z,13.25
2023-02-28T19:44:43.021Z,10.48
2023-02-28T19:47:12.550Z,11.35
2023-02-28T19:49:41.971Z,13.00
2023-02-28T19:52:13.568Z,12.07
2023-02-28T19:54:47.715Z,11.98
2023-02-28T19:57:17.198Z,9.88
2023-02-28T19:59:46.712Z,10.13
2023-02-28T20:02:16.410Z,10.65
2023-02-28T20:04:45.989Z,10.57
2023-02-28T20:07:15.501Z,10.93
2023-02-28T20:09:47.612Z,10.50
2023-02-28T20:12:24.006Z,10.48
2023-02-28T20:14:56.018Z,10.88
2023-02-28T20:17:25.718Z,9.82
2023-02-28T20:19:55.140Z,12.40
2023-02-28T20:22:24.882Z,11.50
2023-02-28T20:24:56.935Z,11.45
2023-02-28T20:27:26.403Z,11.43
2023-02-28T20:29:55.909Z,13.68
2023-02-28T20:32:25.446Z,12.18
2023-02-28T20:34:55.309Z,10.32
2023-02-28T20:37:24.838Z,11.20
2023-02-28T20:39:56.915Z,11.13
2023-02-28T20:42:26.370Z,10.82
2023-02-28T20:44:55.876Z,11.40
2023-02-28T20:47:25.376Z,12.82
2023-02-28T20:49:54.827Z,12.70
2023-02-28T20:52:24.318Z,11.88
2023-02-28T20:54:56.360Z,11.77
2023-02-28T20:57:25.796Z,11.23
2023-02-28T20:59:55.226Z,11.55
2023-02-28T21:02:25.076Z,12.52
2023-02-28T21:04:54.587Z,11.82
2023-02-28T21:07:25.023Z,12.25
2023-02-28T21:09:57.181Z,11.32
2023-02-28T21:12:26.660Z,12.25
2023-02-28T21:14:56.142Z,11.48
2023-02-28T21:17:25.700Z,12.95
2023-02-28T21:19:55.179Z,12.40
2023-02-28T21:22:24.647Z,12.68
2023-02-28T21:24:56.714Z,11.70
2023-02-28T21:27:26.273Z,11.82
2023-02-28T21:29:55.720Z,12.43
2023-02-28T21:32:25.434Z,12.25
2023-02-28T21:34:55.175Z,12.65
2023-02-28T21:37:24.633Z,13.57
2023-02-28T21:39:56.786Z,12.50
2023-02-28T21:42:26.277Z,11.95
2023-02-28T21:44:57.658Z,12.20
2023-02-28T21:47:27.176Z,14.27
2023-02-28T21:49:56.670Z,12.88
2023-02-28T21:52:26.272Z,13.52
2023-02-28T21:54:58.326Z,11.82
2023-02-28T21:57:28.016Z,12.73
2023-02-28T21:59:57.667Z,12.27
2023-02-28T22:02:29.378Z,11.63
2023-02-28T22:05:03.796Z,12.35
2023-02-28T22:07:33.278Z,12.23
2023-02-28T22:10:05.323Z,12.40
2023-02-28T22:12:34.860Z,13.98
2023-02-28T22:15:04.327Z,12.82
2023-02-28T22:17:33.774Z,13.15
2023-02-28T22:20:03.608Z,12.35
2023-02-28T22:22:33.030Z,13.35
2023-02-28T22:25:05.213Z,13.93
2023-02-28T22:27:34.730Z,13.77
2023-02-28T22:30:04.211Z,14.60
2023-02-28T22:32:33.840Z,13.57
2023-02-28T22:35:03.386Z,13.82
2023-02-28T22:37:32.876Z,14.20
2023-02-28T22:40:04.992Z,12.45
2023-02-28T22:42:36.126Z,13.00
2023-02-28T22:45:05.801Z,13.90
2023-02-28T22:47:35.276Z,14.48
2023-02-28T22:50:07.710Z,13.32
2023-02-28T22:52:37.240Z,13.85
2023-02-28T22:55:13.573Z,14.98
2023-02-28T22:57:43.092Z,14.02
2023-02-28T23:00:15.621Z,13.90
2023-02-28T23:02:45.140Z,13.70
2023-02-28T23:05:15.201Z,13.52
2023-02-28T23:07:44.862Z,13.65
2023-02-28T23:10:18.910Z,14.15
2023-02-28T23:12:53.374Z,14.13
2023-02-28T23:15:23.361Z,14.00
2023-02-28T23:17:52.989Z,13.93
2023-02-28T23:20:23.667Z,13.15
2023-02-28T23:22:53.132Z,13.38
2023-02-28T23:25:25.287Z,14.27
2023-02-28T23:27:54.712Z,14.93
2023-02-28T23:30:24.297Z,13.05
2023-02-28T23:32:54.214Z,13.38
2023-02-28T23:35:23.836Z,14.50
2023-02-28T23:37:53.368Z,13.27
2023-02-28T23:40:25.535Z,14.70
2023-02-28T23:42:54.944Z,14.85
2023-02-28T23:45:24.427Z,13.65
2023-02-28T23:47:53.987Z,16.83
2023-02-28T23:50:23.437Z,14.40
2023-02-28T23:52:53.231Z,14.40
2023-02-28T23:55:25.390Z,13.90
2023-02-28T23:57:54.858Z,15.13
